Time;durP1;ratioP1;P1;durP2;ratioP2;P2;SDS_P1;SDS_P2;PMS_P1;PMS_P2;Temp;Humidity;BMP_temperature;BMP_pressure;BME280_temperature;BME280_humidity;BME280_pressure;Samples;Min_cycle;Max_cycle;Signal;HPM_P1;HPM_P2
2022/10/10 00:00:02;;;;;;;23.10;7.22;;;;;;;;;;1031608;28;20030;-76
2022/10/10 00:00:33;;;;;;;21.80;7.35;;;;;;;;;;1031669;28;20438;-76
2022/10/10 00:01:04;;;;;;;30.02;7.65;;;;;;;;;;1031133;28;20030;-76
2022/10/10 00:01:35;;;;;;;19.45;8.85;;;;;;;;;;1031293;28;20033;-76
2022/10/10 00:02:06;;;;;;;21.67;8.70;;;;;;;;;;1031322;28;20054;-76
2022/10/10 00:02:36;;;;;;;21.50;7.97;;;;;;;;;;1031296;28;20539;-76
2022/10/10 00:03:08;;;;;;;17.48;7.32;;;;;;;;;;1031339;28;20041;-76
2022/10/10 00:03:38;;;;;;;26.83;8.63;;;;;;;;;;1031624;28;20089;-76
2022/10/10 00:04:09;;;;;;;17.05;8.57;;;;;;;;;;1031342;28;20113;-76
2022/10/10 00:04:40;;;;;;;23.98;7.38;;;;;;;;;;1031523;28;20018;-76
2022/10/10 00:05:10;;;;;;;27.88;9.60;;;;;;;;;;1030554;28;20026;-76
2022/10/10 00:05:41;;;;;;;25.70;8.77;;;;;;;;;;1031709;28;20470;-76
2022/10/10 00:06:12;;;;;;;23.48;9.88;;;;;;;;;;1031294;28;20105;-76
2022/10/10 00:06:43;;;;;;;19.45;9.18;;;;;;;;;;1031738;28;20027;-76
2022/10/10 00:07:13;;;;;;;20.45;6.45;;;;;;;;;;1031665;28;20137;-76
2022/10/10 00:07:44;;;;;;;22.40;8.30;;;;;;;;;;1031698;28;20026;-76
2022/10/10 00:08:14;;;;;;;26.60;10.35;;;;;;;;;;1031127;28;20109;-76
2022/10/10 00:08:45;;;;;;;18.63;8.00;;;;;;;;;;1031408;28;20088;-76
2022/10/10 00:09:16;;;;;;;27.02;9.68;;;;;;;;;;1031326;28;20053;-76
2022/10/10 00:09:46;;;;;;;19.20;7.85;;;;;;;;;;1031418;28;20026;-76
2022/10/10 00:10:17;;;;;;;31.38;7.57;;;;;;;;;;1031597;28;20109;-76
2022/10/10 00:10:47;;;;;;;15.38;6.88;;;;;;;;;;1031268;28;20026;-76
2022/10/10 00:11:19;;;;;;;14.00;6.85;;;;;;;;;;1030785;28;20026;-76
2022/10/10 00:11:50;;;;;;;17.90;6.88;;;;;;;;;;1031090;28;20064;-76
2022/10/10 00:12:20;;;;;;;21.70;8.07;;;;;;;;;;1031316;28;20037;-76
2022/10/10 00:12:51;;;;;;;27.25;7.38;;;;;;;;;;1031631;28;20050;-76
2022/10/10 00:13:21;;;;;;;22.58;7.78;;;;;;;;;;1031646;28;20455;-76
2022/10/10 00:13:52;;;;;;;15.70;7.93;;;;;;;;;;1031669;28;20034;-76
2022/10/10 00:14:22;;;;;;;14.23;5.88;;;;;;;;;;1031349;28;20022;-76
2022/10/10 00:14:53;;;;;;;15.60;6.32;;;;;;;;;;1031350;28;20034;-76
2022/10/10 00:15:24;;;;;;;20.23;7.07;;;;;;;;;;1031178;28;20034;-76
2022/10/10 00:15:55;;;;;;;20.80;6.50;;;;;;;;;;1030305;28;20032;-76
2022/10/10 00:16:25;;;;;;;18.25;6.93;;;;;;;;;;1030105;28;20394;-76
2022/10/10 00:16:56;;;;;;;23.55;7.82;;;;;;;;;;1030405;28;20026;-76
2022/10/10 00:17:26;;;;;;;20.08;6.93;;;;;;;;;;1027159;28;20027;-76
2022/10/10 00:17:57;;;;;;;20.00;8.00;;;;;;;;;;1027368;28;20065;-76
2022/10/10 00:18:27;;;;;;;19.88;7.38;;;;;;;;;;1031258;28;20027;-76
2022/10/10 00:18:58;;;;;;;21.83;7.90;;;;;;;;;;1031485;28;20022;-76
2022/10/10 00:19:29;;;;;;;11.80;5.63;;;;;;;;;;1030751;28;20141;-76
2022/10/10 00:19:59;;;;;;;34.45;7.57;;;;;;;;;;1031333;28;20021;-76
2022/10/10 00:20:30;;;;;;;19.42;7.40;;;;;;;;;;1031265;28;20023;-76
2022/10/10 00:21:01;;;;;;;21.33;7.07;;;;;;;;;;1031398;28;20046;-76
2022/10/10 00:21:31;;;;;;;19.70;7.32;;;;;;;;;;1031583;28;20032;-76
2022/10/10 00:22:02;;;;;;;17.20;6.88;;;;;;;;;;1031633;28;20382;-76
2022/10/10 00:22:32;;;;;;;23.52;5.97;;;;;;;;;;1031493;28;20034;-76
2022/10/10 00:23:03;;;;;;;16.23;7.30;;;;;;;;;;1031625;28;20034;-76
2022/10/10 00:23:34;;;;;;;16.25;6.60;;;;;;;;;;1030694;28;20033;-76
2022/10/10 00:24:04;;;;;;;21.83;6.85;;;;;;;;;;1027028;28;20027;-76
2022/10/10 00:24:35;;;;;;;15.32;6.05;;;;;;;;;;1027304;28;20387;-76
2022/10/10 00:25:06;;;;;;;13.98;6.78;;;;;;;;;;1025331;28;20106;-76
2022/10/10 00:25:37;;;;;;;17.17;7.72;;;;;;;;;;1029475;28;20504;-76
2022/10/10 00:26:08;;;;;;;31.15;6.57;;;;;;;;;;1030956;28;20234;-76
2022/10/10 00:26:38;;;;;;;23.02;8.00;;;;;;;;;;1031178;28;20034;-76
2022/10/10 00:27:09;;;;;;;20.45;5.75;;;;;;;;;;1031618;28;20018;-76
2022/10/10 00:27:39;;;;;;;14.10;5.68;;;;;;;;;;1031638;28;20026;-76
2022/10/10 00:28:11;;;;;;;19.23;7.35;;;;;;;;;;1030443;28;20026;-76
2022/10/10 00:28:41;;;;;;;21.15;6.18;;;;;;;;;;1030490;28;20120;-76
2022/10/10 00:29:12;;;;;;;16.70;6.35;;;;;;;;;;1031627;28;20030;-76
2022/10/10 00:29:42;;;;;;;14.65;6.05;;;;;;;;;;1031033;28;20026;-76
2022/10/10 00:30:13;;;;;;;20.15;6.82;;;;;;;;;;1031223;28;20077;-76
2022/10/10 00:30:44;;;;;;;12.43;5.65;;;;;;;;;;1031157;28;20085;-76
2022/10/10 00:31:14;;;;;;;21.42;4.88;;;;;;;;;;1031231;28;20029;-76
2022/10/10 00:31:45;;;;;;;17.83;6.28;;;;;;;;;;1031522;28;20034;-76
2022/10/10 00:32:16;;;;;;;18.85;6.38;;;;;;;;;;1031519;28;20025;-76
2022/10/10 00:32:46;;;;;;;12.40;5.32;;;;;;;;;;1030172;28;20034;-77
2022/10/10 00:33:17;;;;;;;26.70;5.97;;;;;;;;;;1028658;28;20023;-76
2022/10/10 00:33:47;;;;;;;21.02;6.57;;;;;;;;;;1026041;28;20031;-76
2022/10/10 00:34:18;;;;;;;16.75;6.28;;;;;;;;;;1024810;28;20051;-76
2022/10/10 00:34:49;;;;;;;14.95;6.07;;;;;;;;;;1028617;28;20031;-76
2022/10/10 00:35:19;;;;;;;8.48;4.63;;;;;;;;;;1027305;28;20022;-76
2022/10/10 00:35:50;;;;;;;10.30;5.60;;;;;;;;;;1030629;28;20026;-76
2022/10/10 00:36:20;;;;;;;20.38;5.72;;;;;;;;;;1031164;28;20026;-76
2022/10/10 00:36:51;;;;;;;9.55;4.85;;;;;;;;;;1031359;28;20022;-76
2022/10/10 00:37:21;;;;;;;9.30;4.35;;;;;;;;;;1031572;28;20052;-76
2022/10/10 00:37:52;;;;;;;22.40;6.22;;;;;;;;;;1031093;28;20021;-76
2022/10/10 00:38:22;;;;;;;19.92;6.35;;;;;;;;;;1031190;28;20407;-76
2022/10/10 00:38:53;;;;;;;9.27;5.10;;;;;;;;;;1031289;28;20050;-76
2022/10/10 00:39:23;;;;;;;16.33;4.95;;;;;;;;;;1027173;28;20033;-76
2022/10/10 00:39:54;;;;;;;16.33;6.18;;;;;;;;;;1022999;28;20031;-76
2022/10/10 00:40:25;;;;;;;14.13;5.60;;;;;;;;;;1023153;28;20368;-76
2022/10/10 00:40:55;;;;;;;18.38;5.72;;;;;;;;;;1027443;28;20570;-76
2022/10/10 00:41:26;;;;;;;17.40;5.32;;;;;;;;;;1031144;28;20450;-75
2022/10/10 00:41:56;;;;;;;24.20;6.40;;;;;;;;;;1031468;28;20026;-76
2022/10/10 00:42:27;;;;;;;16.10;6.45;;;;;;;;;;1031392;28;20038;-76
2022/10/10 00:42:58;;;;;;;18.95;6.13;;;;;;;;;;1031668;28;20495;-76
2022/10/10 00:43:29;;;;;;;21.65;5.13;;;;;;;;;;1031483;28;20049;-76
2022/10/10 00:44:01;;;;;;;15.48;7.07;;;;;;;;;;1030942;28;20054;-76
2022/10/10 00:44:31;;;;;;;19.83;6.70;;;;;;;;;;1029028;28;20022;-76
2022/10/10 00:45:21;;;;;;;21.75;5.45;;;;;;;;;;1027013;28;20456;-76
2022/10/10 00:45:51;;;;;;;16.60;5.78;;;;;;;;;;1028262;28;20352;-76
2022/10/10 00:46:22;;;;;;;15.57;6.75;;;;;;;;;;1025448;28;20114;-76
2022/10/10 00:46:53;;;;;;;35.60;7.38;;;;;;;;;;1027679;28;20027;-76
2022/10/10 00:47:23;;;;;;;10.50;5.75;;;;;;;;;;1029094;28;20078;-76
2022/10/10 00:47:57;;;;;;;17.70;6.03;;;;;;;;;;1029004;28;20037;-76
2022/10/10 00:48:32;;;;;;;19.13;5.40;;;;;;;;;;1030515;28;20046;-76
2022/10/10 00:49:06;;;;;;;22.95;7.32;;;;;;;;;;1031384;28;20022;-76
2022/10/10 00:49:38;;;;;;;13.80;7.53;;;;;;;;;;1031058;28;20022;-76
2022/10/10 00:50:09;;;;;;;11.63;5.78;;;;;;;;;;1031411;28;20069;-76
2022/10/10 00:50:47;;;;;;;32.85;7.22;;;;;;;;;;1031590;28;20022;-76
2022/10/10 00:51:18;;;;;;;13.50;5.60;;;;;;;;;;1031353;28;20037;-76
2022/10/10 00:51:50;;;;;;;23.73;6.50;;;;;;;;;;1031058;28;20034;-76
2022/10/10 00:52:21;;;;;;;16.02;5.60;;;;;;;;;;1030875;28;20515;-76
2022/10/10 00:52:52;;;;;;;18.40;6.90;;;;;;;;;;1031207;28;20026;-76
2022/10/10 00:53:25;;;;;;;20.48;6.93;;;;;;;;;;1031140;28;20034;-76
2022/10/10 00:53:58;;;;;;;24.55;6.47;;;;;;;;;;1030998;28;20506;-76
2022/10/10 00:54:30;;;;;;;15.10;5.88;;;;;;;;;;1029990;28;20022;-76
2022/10/10 00:55:01;;;;;;;19.02;6.15;;;;;;;;;;1031364;28;20487;-76
2022/10/10 00:55:32;;;;;;;14.95;5.82;;;;;;;;;;1031149;28;20026;-76
2022/10/10 00:56:03;;;;;;;16.13;4.93;;;;;;;;;;1031056;28;20145;-76
2022/10/10 00:56:39;;;;;;;10.10;5.32;;;;;;;;;;1031232;28;20077;-76
2022/10/10 00:57:10;;;;;;;19.95;6.28;;;;;;;;;;1031207;28;21237;-76
2022/10/10 00:57:41;;;;;;;15.48;7.13;;;;;;;;;;1030218;28;20414;-76
2022/10/10 00:58:13;;;;;;;35.63;5.75;;;;;;;;;;1030966;28;20026;-76
2022/10/10 00:58:45;;;;;;;18.02;7.38;;;;;;;;;;1031289;28;20067;-76
2022/10/10 00:59:16;;;;;;;20.77;5.57;;;;;;;;;;1031501;28;20030;-76
2022/10/10 00:59:47;;;;;;;15.32;5.45;;;;;;;;;;1031507;28;20026;-76
2022/10/10 01:00:17;;;;;;;21.63;5.20;;;;;;;;;;1031139;28;20438;-76
2022/10/10 01:00:48;;;;;;;19.77;5.05;;;;;;;;;;1031193;28;20022;-76
2022/10/10 01:01:19;;;;;;;18.48;6.10;;;;;;;;;;1031193;28;20034;-76
2022/10/10 01:01:49;;;;;;;16.35;5.40;;;;;;;;;;1031152;28;20136;-76
2022/10/10 01:02:20;;;;;;;14.98;5.70;;;;;;;;;;1031358;28;20037;-76
2022/10/10 01:02:50;;;;;;;21.20;4.85;;;;;;;;;;1031152;28;20018;-76
2022/10/10 01:03:21;;;;;;;19.77;7.38;;;;;;;;;;1029061;28;20485;-76
2022/10/10 01:03:52;;;;;;;16.45;4.45;;;;;;;;;;1029310;28;20137;-76
2022/10/10 01:04:31;;;;;;;17.42;4.28;;;;;;;;;;1027666;28;20058;-76
2022/10/10 01:05:02;;;;;;;29.35;5.38;;;;;;;;;;1031371;28;20409;-76
2022/10/10 01:05:33;;;;;;;18.27;4.65;;;;;;;;;;1031099;28;20026;-76
2022/10/10 01:06:04;;;;;;;18.88;5.85;;;;;;;;;;1031026;28;20438;-76
2022/10/10 01:06:34;;;;;;;25.60;4.97;;;;;;;;;;1030743;28;20026;-76
2022/10/10 01:07:07;;;;;;;16.08;4.88;;;;;;;;;;1031240;28;20057;-76
2022/10/10 01:07:38;;;;;;;12.10;5.38;;;;;;;;;;1031547;28;20022;-76
2022/10/10 01:08:09;;;;;;;6.80;3.67;;;;;;;;;;1031315;28;20026;-76
2022/10/10 01:08:40;;;;;;;15.57;4.60;;;;;;;;;;1031565;28;20137;-76
2022/10/10 01:09:10;;;;;;;15.40;4.35;;;;;;;;;;1030983;28;20022;-76
2022/10/10 01:09:42;;;;;;;31.83;5.65;;;;;;;;;;1030115;28;20026;-76
2022/10/10 01:10:14;;;;;;;13.10;5.55;;;;;;;;;;1030005;28;20026;-77
2022/10/10 01:11:03;;;;;;;12.32;5.18;;;;;;;;;;1031242;28;20034;-76
2022/10/10 01:11:44;;;;;;;12.70;6.50;;;;;;;;;;1030955;28;20118;-76
2022/10/10 01:12:21;;;;;;;11.25;3.97;;;;;;;;;;1031280;28;20030;-76
2022/10/10 01:12:51;;;;;;;10.13;5.63;;;;;;;;;;1031976;28;20501;-76
2022/10/10 01:13:40;;;;;;;12.80;4.47;;;;;;;;;;1031002;28;20217;-76
2022/10/10 01:14:13;;;;;;;8.40;4.00;;;;;;;;;;1029051;28;20402;-76
2022/10/10 01:14:54;;;;;;;13.45;4.43;;;;;;;;;;1029643;28;20193;-76
2022/10/10 01:15:27;;;;;;;19.27;5.68;;;;;;;;;;1030905;28;20379;-76
2022/10/10 01:16:21;;;;;;;13.98;5.63;;;;;;;;;;1031390;28;20041;-76
2022/10/10 01:17:04;;;;;;;19.02;5.05;;;;;;;;;;1020572;28;20032;-76
2022/10/10 01:17:39;;;;;;;6.50;3.88;;;;;;;;;;1026612;28;20137;-76
2022/10/10 01:18:10;;;;;;;15.80;5.47;;;;;;;;;;1029200;28;20034;-76
2022/10/10 01:18:44;;;;;;;11.45;4.65;;;;;;;;;;1030702;28;20026;-76
2022/10/10 01:19:33;;;;;;;10.30;4.40;;;;;;;;;;1032065;28;20117;-76
2022/10/10 01:20:13;;;;;;;13.63;5.47;;;;;;;;;;1032282;28;20073;-76
2022/10/10 01:20:49;;;;;;;16.27;4.47;;;;;;;;;;1030005;28;20058;-76
2022/10/10 01:21:20;;;;;;;22.00;5.38;;;;;;;;;;1027973;28;20117;-76
2022/10/10 01:21:53;;;;;;;12.70;4.65;;;;;;;;;;1025433;28;20023;-76
2022/10/10 01:22:24;;;;;;;13.95;4.60;;;;;;;;;;1026471;28;20550;-76
2022/10/10 01:22:57;;;;;;;14.20;4.68;;;;;;;;;;1026497;28;20089;-76
2022/10/10 01:23:47;;;;;;;22.75;6.88;;;;;;;;;;1032328;28;20014;-76
2022/10/10 01:24:17;;;;;;;12.70;5.97;;;;;;;;;;1028688;28;20532;-76
2022/10/10 01:25:08;;;;;;;15.68;5.85;;;;;;;;;;1029553;28;20363;-76
2022/10/10 01:25:59;;;;;;;18.75;5.78;;;;;;;;;;1027355;28;20038;-77
2022/10/10 01:26:46;;;;;;;18.65;4.95;;;;;;;;;;1017401;28;21347;-77
2022/10/10 01:27:23;;;;;;;17.08;5.03;;;;;;;;;;1027564;28;20035;-76
2022/10/10 01:28:00;;;;;;;11.25;5.03;;;;;;;;;;1025268;28;20055;-76
2022/10/10 01:28:37;;;;;;;12.18;6.05;;;;;;;;;;1029587;28;20030;-76
2022/10/10 01:29:16;;;;;;;20.60;5.07;;;;;;;;;;1026922;28;20030;-76
2022/10/10 01:29:51;;;;;;;20.23;5.72;;;;;;;;;;1026112;28;20147;-76
2022/10/10 01:30:23;;;;;;;16.20;6.20;;;;;;;;;;1026937;28;20023;-76
2022/10/10 01:30:55;;;;;;;17.75;5.30;;;;;;;;;;1026557;28;20015;-77
2022/10/10 01:31:27;;;;;;;24.02;5.57;;;;;;;;;;1028778;28;20029;-76
2022/10/10 01:32:04;;;;;;;15.65;6.63;;;;;;;;;;1028605;28;20022;-77
2022/10/10 01:32:35;;;;;;;15.40;4.68;;;;;;;;;;1029075;28;20027;-76
2022/10/10 01:33:13;;;;;;;19.00;7.38;;;;;;;;;;1025382;28;20126;-77
2022/10/10 01:33:50;;;;;;;16.98;5.22;;;;;;;;;;1026884;28;20317;-76
2022/10/10 01:34:23;;;;;;;28.13;5.88;;;;;;;;;;1025547;28;20113;-76
2022/10/10 01:34:53;;;;;;;17.45;6.22;;;;;;;;;;1029214;28;20514;-76
2022/10/10 01:35:48;;;;;;;28.90;6.30;;;;;;;;;;1027087;28;20011;-76
2022/10/10 01:36:26;;;;;;;19.63;6.15;;;;;;;;;;1024316;28;20026;-76
2022/10/10 01:37:03;;;;;;;28.33;5.95;;;;;;;;;;1026606;28;20022;-76
2022/10/10 01:37:56;;;;;;;15.65;5.75;;;;;;;;;;1027272;28;20054;-76
2022/10/10 01:38:34;;;;;;;15.73;6.05;;;;;;;;;;1016555;28;20120;-76
2022/10/10 01:39:12;;;;;;;17.63;7.10;;;;;;;;;;1026934;28;20033;-76
2022/10/10 01:39:53;;;;;;;20.75;6.13;;;;;;;;;;1027232;28;20514;-76
2022/10/10 01:40:33;;;;;;;11.63;5.18;;;;;;;;;;1028571;28;20026;-76
2022/10/10 01:41:06;;;;;;;11.00;4.93;;;;;;;;;;1032396;28;20073;-76
2022/10/10 01:41:39;;;;;;;14.60;4.68;;;;;;;;;;1030300;28;20849;-76
2022/10/10 01:42:23;;;;;;;17.65;7.40;;;;;;;;;;1032105;28;20525;-76
2022/10/10 01:42:54;;;;;;;24.75;6.05;;;;;;;;;;1031935;28;20026;-76
2022/10/10 01:43:25;;;;;;;19.48;6.65;;;;;;;;;;1030578;28;20121;-76
2022/10/10 01:43:57;;;;;;;14.18;5.53;;;;;;;;;;1029417;28;20302;-76
2022/10/10 01:44:27;;;;;;;25.13;7.10;;;;;;;;;;1030198;28;20084;-77
2022/10/10 01:44:58;;;;;;;23.45;7.68;;;;;;;;;;1030229;28;20022;-75
2022/10/10 01:45:30;;;;;;;18.63;5.65;;;;;;;;;;1030877;28;20694;-75
2022/10/10 01:46:08;;;;;;;21.15;6.00;;;;;;;;;;1031197;28;20379;-75
2022/10/10 01:46:39;;;;;;;23.60;5.65;;;;;;;;;;1031617;28;20453;-75
2022/10/10 01:47:10;;;;;;;19.15;6.88;;;;;;;;;;1030848;28;20018;-77
2022/10/10 01:47:40;;;;;;;18.88;4.78;;;;;;;;;;1031465;28;20406;-75
2022/10/10 01:48:11;;;;;;;29.95;7.38;;;;;;;;;;1030288;28;20049;-75
2022/10/10 01:48:43;;;;;;;18.70;6.95;;;;;;;;;;1030132;28;20509;-75
2022/10/10 01:49:14;;;;;;;13.93;6.50;;;;;;;;;;1030242;28;20030;-75
2022/10/10 01:49:45;;;;;;;34.38;7.13;;;;;;;;;;1029814;28;20030;-75
2022/10/10 01:50:18;;;;;;;16.27;5.18;;;;;;;;;;1030113;28;20105;-75
2022/10/10 01:51:24;;;;;;;13.20;4.75;;;;;;;;;;1030710;28;20042;-75
2022/10/10 01:52:00;;;;;;;11.30;5.50;;;;;;;;;;1022054;29;20031;-75
2022/10/10 01:52:40;;;;;;;15.55;5.68;;;;;;;;;;1019095;29;20035;-75
2022/10/10 01:53:16;;;;;;;15.70;5.45;;;;;;;;;;1018678;29;20547;-75
2022/10/10 01:54:05;;;;;;;14.50;4.68;;;;;;;;;;1018267;29;20027;-75
2022/10/10 01:54:36;;;;;;;14.27;4.63;;;;;;;;;;1026763;28;20391;-75
2022/10/10 01:55:19;;;;;;;17.17;6.00;;;;;;;;;;1031461;28;20029;-77
2022/10/10 01:56:28;;;;;;;24.88;7.63;;;;;;;;;;1031107;28;20025;-76
2022/10/10 01:57:04;;;;;;;17.08;4.22;;;;;;;;;;1019192;29;20620;-75
2022/10/10 01:57:35;;;;;;;27.70;5.30;;;;;;;;;;1014320;29;20381;-75
2022/10/10 01:58:27;;;;;;;22.40;6.80;;;;;;;;;;1014599;29;20108;-76
2022/10/10 01:59:03;;;;;;;13.60;3.97;;;;;;;;;;1015543;29;20079;-76
2022/10/10 01:59:37;;;;;;;13.07;5.18;;;;;;;;;;1018356;29;20031;-76
2022/10/10 02:00:07;;;;;;;12.38;5.05;;;;;;;;;;1017067;29;20397;-76
2022/10/10 02:00:49;;;;;;;19.92;5.38;;;;;;;;;;1016956;29;20055;-76
2022/10/10 02:01:32;;;;;;;10.50;4.07;;;;;;;;;;1017294;29;20028;-75
2022/10/10 02:02:11;;;;;;;23.27;5.35;;;;;;;;;;1019962;29;20591;-76
2022/10/10 02:02:49;;;;;;;16.77;5.43;;;;;;;;;;1020641;28;20031;-76
2022/10/10 02:03:23;;;;;;;23.05;5.03;;;;;;;;;;1031606;28;20441;-76
2022/10/10 02:04:00;;;;;;;9.20;4.40;;;;;;;;;;1031240;28;20022;-76
2022/10/10 02:04:37;;;;;;;17.20;6.63;;;;;;;;;;1026807;28;20027;-76
2022/10/10 02:05:18;;;;;;;10.57;4.38;;;;;;;;;;1023350;28;20092;-76
2022/10/10 02:05:52;;;;;;;16.90;6.10;;;;;;;;;;1022244;28;20046;-76
2022/10/10 02:06:51;;;;;;;16.33;5.22;;;;;;;;;;1025386;28;20185;-76
2022/10/10 02:07:27;;;;;;;20.88;4.93;;;;;;;;;;1010287;29;20132;-77
2022/10/10 02:08:16;;;;;;;14.43;4.75;;;;;;;;;;1030584;28;20065;-76
2022/10/10 02:08:50;;;;;;;12.95;4.75;;;;;;;;;;1032032;28;20026;-76
2022/10/10 02:09:27;;;;;;;11.45;5.07;;;;;;;;;;1032620;28;20371;-76
2022/10/10 02:09:59;;;;;;;22.40;5.20;;;;;;;;;;1030079;28;20113;-76
2022/10/10 02:10:31;;;;;;;14.27;5.85;;;;;;;;;;1031879;28;20022;-76
2022/10/10 02:11:03;;;;;;;20.10;6.32;;;;;;;;;;1031216;28;20037;-76
2022/10/10 02:11:36;;;;;;;19.65;6.60;;;;;;;;;;1031482;28;20034;-76
2022/10/10 02:12:09;;;;;;;14.85;5.35;;;;;;;;;;1030661;28;20031;-76
2022/10/10 02:12:40;;;;;;;15.90;5.18;;;;;;;;;;1031800;28;20022;-76
2022/10/10 02:13:12;;;;;;;19.48;5.53;;;;;;;;;;1029803;28;20157;-76
2022/10/10 02:13:55;;;;;;;16.58;5.15;;;;;;;;;;1026988;28;20085;-76
2022/10/10 02:14:29;;;;;;;23.55;5.93;;;;;;;;;;1022517;28;20421;-76
2022/10/10 02:15:05;;;;;;;23.65;5.25;;;;;;;;;;1025626;28;20086;-76
2022/10/10 02:15:39;;;;;;;14.80;7.32;;;;;;;;;;1026516;28;20054;-76
2022/10/10 02:16:19;;;;;;;23.58;5.25;;;;;;;;;;1024983;28;20122;-76
2022/10/10 02:16:51;;;;;;;14.60;5.35;;;;;;;;;;1027237;28;20514;-76
2022/10/10 02:17:23;;;;;;;10.95;4.68;;;;;;;;;;1028098;28;20549;-76
2022/10/10 02:17:55;;;;;;;16.95;5.78;;;;;;;;;;1030715;28;20356;-76
2022/10/10 02:18:28;;;;;;;11.60;4.93;;;;;;;;;;1032803;28;20418;-76
2022/10/10 02:18:59;;;;;;;10.18;4.72;;;;;;;;;;1033008;28;20477;-76
2022/10/10 02:19:30;;;;;;;15.40;5.20;;;;;;;;;;1027447;28;20082;-76
2022/10/10 02:20:00;;;;;;;17.58;5.18;;;;;;;;;;1025250;28;20018;-76
2022/10/10 02:20:31;;;;;;;31.33;4.32;;;;;;;;;;1025100;28;20023;-76
2022/10/10 02:21:03;;;;;;;17.10;5.22;;;;;;;;;;1024788;28;20027;-76
2022/10/10 02:21:34;;;;;;;18.42;4.28;;;;;;;;;;1031249;28;20073;-76
2022/10/10 02:22:05;;;;;;;20.85;3.92;;;;;;;;;;1033692;28;20026;-76
2022/10/10 02:22:36;;;;;;;16.20;4.75;;;;;;;;;;1032140;28;20026;-76
2022/10/10 02:23:13;;;;;;;13.90;3.67;;;;;;;;;;1030427;28;20167;-76
2022/10/10 02:23:45;;;;;;;14.52;4.15;;;;;;;;;;1031309;28;20529;-76
2022/10/10 02:24:20;;;;;;;19.67;3.08;;;;;;;;;;1030590;28;20038;-76
2022/10/10 02:24:51;;;;;;;12.35;4.15;;;;;;;;;;1031306;28;20030;-76
2022/10/10 02:25:30;;;;;;;22.48;5.13;;;;;;;;;;1027597;28;20030;-76
2022/10/10 02:26:01;;;;;;;6.85;4.13;;;;;;;;;;1028954;28;20030;-76
2022/10/10 02:26:32;;;;;;;12.52;5.90;;;;;;;;;;1031504;28;20054;-76
2022/10/10 02:27:32;;;;;;;8.77;3.88;;;;;;;;;;1027449;28;20034;-76
2022/10/10 02:28:09;;;;;;;13.98;5.53;;;;;;;;;;1011485;28;20035;-76
2022/10/10 02:28:55;;;;;;;15.00;4.65;;;;;;;;;;1031182;28;20030;-76
2022/10/10 02:29:31;;;;;;;11.15;4.97;;;;;;;;;;1032407;28;20034;-76
2022/10/10 02:30:06;;;;;;;18.38;4.53;;;;;;;;;;1027579;28;20554;-76
2022/10/10 02:30:39;;;;;;;29.15;6.65;;;;;;;;;;1022777;29;20135;-76
2022/10/10 02:31:11;;;;;;;17.98;5.63;;;;;;;;;;1024020;28;20042;-76
2022/10/10 02:31:50;;;;;;;16.25;5.32;;;;;;;;;;1021617;28;20034;-75
2022/10/10 02:32:28;;;;;;;7.72;3.67;;;;;;;;;;1026379;28;20030;-75
2022/10/10 02:33:00;;;;;;;15.40;5.53;;;;;;;;;;1026262;28;20543;-75
2022/10/10 02:33:34;;;;;;;14.68;4.20;;;;;;;;;;1027777;28;20431;-76
2022/10/10 02:34:09;;;;;;;16.35;4.25;;;;;;;;;;1028399;28;20464;-76
2022/10/10 02:34:46;;;;;;;19.63;4.13;;;;;;;;;;1031693;28;20181;-76
2022/10/10 02:35:18;;;;;;;12.88;4.15;;;;;;;;;;1033032;28;20046;-76
2022/10/10 02:35:50;;;;;;;17.48;4.85;;;;;;;;;;1033265;28;20021;-76
2022/10/10 02:36:24;;;;;;;25.63;4.60;;;;;;;;;;1031599;28;20022;-77
2022/10/10 02:36:57;;;;;;;14.40;4.38;;;;;;;;;;1032048;28;20037;-76
2022/10/10 02:37:28;;;;;;;33.28;6.22;;;;;;;;;;1031089;28;20022;-76
2022/10/10 02:38:00;;;;;;;14.85;4.03;;;;;;;;;;1026474;28;20065;-77
2022/10/10 02:38:31;;;;;;;38.10;7.20;;;;;;;;;;1033696;28;20038;-77
2022/10/10 02:39:02;;;;;;;11.30;5.00;;;;;;;;;;1034256;28;20045;-77
2022/10/10 02:39:35;;;;;;;12.63;3.78;;;;;;;;;;1033693;28;20045;-77
2022/10/10 02:40:08;;;;;;;16.48;4.82;;;;;;;;;;1033322;28;20027;-76
2022/10/10 02:40:46;;;;;;;19.92;4.78;;;;;;;;;;1030895;28;20022;-76
2022/10/10 02:41:18;;;;;;;36.30;5.75;;;;;;;;;;1030742;28;20023;-76
2022/10/10 02:41:50;;;;;;;21.88;4.18;;;;;;;;;;1026359;28;20078;-77
2022/10/10 02:42:22;;;;;;;11.07;4.30;;;;;;;;;;1026508;29;20023;-76
2022/10/10 02:42:54;;;;;;;11.85;4.65;;;;;;;;;;1026490;29;20456;-76
2022/10/10 02:43:25;;;;;;;16.60;4.82;;;;;;;;;;1027518;28;20098;-76
2022/10/10 02:43:56;;;;;;;19.58;6.38;;;;;;;;;;1031193;28;20029;-76
2022/10/10 02:44:27;;;;;;;11.98;3.60;;;;;;;;;;1033747;28;20022;-77
2022/10/10 02:44:57;;;;;;;22.48;5.05;;;;;;;;;;1033287;28;20030;-77
2022/10/10 02:45:29;;;;;;;16.05;4.68;;;;;;;;;;1033164;28;20052;-76
2022/10/10 02:46:01;;;;;;;15.15;5.22;;;;;;;;;;1034778;28;20165;-76
2022/10/10 02:46:32;;;;;;;13.95;4.07;;;;;;;;;;1032044;28;20821;-76
2022/10/10 02:47:03;;;;;;;13.60;5.47;;;;;;;;;;1032123;28;20030;-77
2022/10/10 02:47:36;;;;;;;14.70;4.43;;;;;;;;;;1033225;28;20026;-76
2022/10/10 02:48:07;;;;;;;20.13;5.57;;;;;;;;;;1028692;28;20030;-76
2022/10/10 02:48:39;;;;;;;9.10;4.18;;;;;;;;;;1030290;28;20019;-76
2022/10/10 02:49:10;;;;;;;11.88;5.85;;;;;;;;;;1029375;28;20018;-77
2022/10/10 02:49:41;;;;;;;9.75;4.05;;;;;;;;;;1029517;28;20045;-77
2022/10/10 02:50:12;;;;;;;7.95;3.50;;;;;;;;;;1026165;28;20086;-76
2022/10/10 02:50:43;;;;;;;7.18;3.80;;;;;;;;;;1031071;28;20052;-76
2022/10/10 02:51:15;;;;;;;11.90;3.28;;;;;;;;;;1032513;28;20021;-76
2022/10/10 02:51:45;;;;;;;9.48;3.70;;;;;;;;;;1033348;28;20022;-75
2022/10/10 02:52:19;;;;;;;13.38;4.40;;;;;;;;;;1032674;28;20038;-76
2022/10/10 02:52:50;;;;;;;12.35;4.15;;;;;;;;;;1029660;28;20064;-76
2022/10/10 02:53:21;;;;;;;7.97;3.78;;;;;;;;;;1029911;28;20021;-76
2022/10/10 02:53:51;;;;;;;10.75;3.90;;;;;;;;;;1033775;28;20121;-77
2022/10/10 02:54:25;;;;;;;12.73;4.80;;;;;;;;;;1033871;28;20110;-77
2022/10/10 02:55:00;;;;;;;10.43;3.80;;;;;;;;;;1029081;28;20034;-77
2022/10/10 02:55:31;;;;;;;12.07;3.45;;;;;;;;;;1029952;28;20037;-77
2022/10/10 02:56:02;;;;;;;21.17;3.65;;;;;;;;;;1030962;28;20060;-77
2022/10/10 02:56:32;;;;;;;4.85;2.85;;;;;;;;;;1029414;28;20035;-77
2022/10/10 02:57:07;;;;;;;21.20;4.82;;;;;;;;;;1031936;28;20030;-78
2022/10/10 02:57:38;;;;;;;21.27;5.38;;;;;;;;;;1034050;28;20023;-77
2022/10/10 02:58:09;;;;;;;8.77;3.63;;;;;;;;;;1025691;28;20054;-75
2022/10/10 02:58:43;;;;;;;15.00;4.20;;;;;;;;;;1032390;28;20409;-76
2022/10/10 02:59:18;;;;;;;8.25;3.13;;;;;;;;;;1030802;28;20485;-78
2022/10/10 02:59:50;;;;;;;9.85;3.80;;;;;;;;;;1033576;28;20058;-76
2022/10/10 03:00:21;;;;;;;11.65;2.90;;;;;;;;;;1035144;28;20458;-77
2022/10/10 03:00:52;;;;;;;12.63;4.35;;;;;;;;;;1030951;28;20022;-76
2022/10/10 03:01:23;;;;;;;10.55;4.10;;;;;;;;;;1031074;28;20042;-75
2022/10/10 03:01:54;;;;;;;14.00;4.57;;;;;;;;;;1032250;28;20073;-78
2022/10/10 03:02:25;;;;;;;15.70;3.85;;;;;;;;;;1033492;28;20034;-76
2022/10/10 03:02:56;;;;;;;15.65;5.38;;;;;;;;;;1031178;28;20462;-77
2022/10/10 03:03:27;;;;;;;27.67;3.78;;;;;;;;;;1026973;28;20609;-76
2022/10/10 03:03:57;;;;;;;10.93;4.85;;;;;;;;;;1029687;28;20038;-77
2022/10/10 03:04:28;;;;;;;15.02;4.28;;;;;;;;;;1026214;28;20026;-76
2022/10/10 03:05:00;;;;;;;9.77;4.57;;;;;;;;;;1025177;28;20031;-76
2022/10/10 03:05:36;;;;;;;10.23;3.38;;;;;;;;;;1025668;28;20080;-76
2022/10/10 03:06:13;;;;;;;18.80;4.20;;;;;;;;;;1023400;28;20031;-77
2022/10/10 03:06:45;;;;;;;10.77;3.97;;;;;;;;;;1025342;28;20561;-76
2022/10/10 03:07:20;;;;;;;12.68;3.00;;;;;;;;;;1023349;28;20042;-76
2022/10/10 03:07:51;;;;;;;20.17;5.07;;;;;;;;;;1020709;28;20607;-76
2022/10/10 03:08:27;;;;;;;15.52;3.45;;;;;;;;;;1024227;28;20039;-77
2022/10/10 03:09:03;;;;;;;12.70;3.10;;;;;;;;;;1021830;28;20583;-76
2022/10/10 03:09:35;;;;;;;12.15;3.67;;;;;;;;;;1022939;28;20063;-76
2022/10/10 03:10:10;;;;;;;14.60;4.22;;;;;;;;;;1023883;28;20027;-75
2022/10/10 03:10:53;;;;;;;17.60;4.15;;;;;;;;;;1026894;28;20577;-78
2022/10/10 03:11:32;;;;;;;22.73;6.45;;;;;;;;;;1025651;28;20380;-77
2022/10/10 03:12:10;;;;;;;11.95;4.10;;;;;;;;;;1022691;29;20035;-78
2022/10/10 03:12:53;;;;;;;22.35;5.28;;;;;;;;;;1019346;29;20538;-77
2022/10/10 03:13:37;;;;;;;17.33;4.10;;;;;;;;;;1024089;28;20038;-77
2022/10/10 03:14:17;;;;;;;14.13;3.13;;;;;;;;;;1029231;28;20033;-77
2022/10/10 03:14:49;;;;;;;14.32;4.05;;;;;;;;;;1030749;28;20053;-77
2022/10/10 03:15:22;;;;;;;14.23;3.92;;;;;;;;;;1031862;28;20108;-79
2022/10/10 03:15:54;;;;;;;16.00;3.45;;;;;;;;;;1027545;28;20489;-75
2022/10/10 03:16:26;;;;;;;15.43;3.25;;;;;;;;;;1028482;28;20087;-76
2022/10/10 03:17:00;;;;;;;11.40;3.67;;;;;;;;;;1033117;28;20022;-76
2022/10/10 03:17:31;;;;;;;28.50;4.18;;;;;;;;;;1028848;28;20049;-76
2022/10/10 03:18:02;;;;;;;25.10;4.38;;;;;;;;;;1028225;28;20070;-75
2022/10/10 03:18:33;;;;;;;21.90;4.05;;;;;;;;;;1022591;28;20031;-76
2022/10/10 03:19:07;;;;;;;16.75;4.57;;;;;;;;;;1023586;28;20027;-78
2022/10/10 03:19:39;;;;;;;13.80;3.20;;;;;;;;;;1020320;28;20023;-76